Time;durP1;ratioP1;P1;durP2;ratioP2;P2;SDS_P1;SDS_P2;PMS_P1;PMS_P2;Temp;Humidity;BMP_temperature;BMP_pressure;BME280_temperature;BME280_humidity;BME280_pressure;Samples;Min_cycle;Max_cycle;Signal;HPM_P1;HPM_P2
2022/10/19 00:00:00;;;;;;;8.20;6.10;;;;;;;;;;5026726;28;20469;-77
2022/10/19 00:02:26;;;;;;;14.63;6.53;;;;;;;;;;5044387;28;20429;-78
2022/10/19 00:04:52;;;;;;;9.97;6.33;;;;;;;;;;5022655;28;20907;-79
2022/10/19 00:07:18;;;;;;;8.40;5.80;;;;;;;;;;5044674;28;20529;-79
2022/10/19 00:09:44;;;;;;;9.23;5.77;;;;;;;;;;5022197;28;20460;-77
2022/10/19 00:12:11;;;;;;;9.10;5.60;;;;;;;;;;5044254;28;20430;-77
2022/10/19 00:14:37;;;;;;;8.73;7.20;;;;;;;;;;5021753;28;20466;-78
2022/10/19 00:17:03;;;;;;;10.60;5.60;;;;;;;;;;5044647;28;20433;-78
2022/10/19 00:19:30;;;;;;;7.07;6.37;;;;;;;;;;5021880;28;20504;-76
2022/10/19 00:21:56;;;;;;;8.70;6.27;;;;;;;;;;5044689;28;20998;-76
2022/10/19 00:24:22;;;;;;;11.13;7.30;;;;;;;;;;5021561;28;20529;-78
2022/10/19 00:26:48;;;;;;;9.13;5.93;;;;;;;;;;5044477;28;20982;-78
2022/10/19 00:29:15;;;;;;;7.17;6.57;;;;;;;;;;5021807;28;20484;-77
2022/10/19 00:31:41;;;;;;;6.03;5.50;;;;;;;;;;5024948;28;20415;-77
2022/10/19 00:34:07;;;;;;;10.67;5.77;;;;;;;;;;5040786;28;20476;-78
2022/10/19 00:36:34;;;;;;;10.87;5.30;;;;;;;;;;5046205;28;20470;-77
2022/10/19 00:39:00;;;;;;;5.90;5.50;;;;;;;;;;5024286;28;20521;-77
2022/10/19 00:41:28;;;;;;;7.63;5.90;;;;;;;;;;5028962;28;20407;-77
2022/10/19 00:43:58;;;;;;;6.87;6.00;;;;;;;;;;5044293;28;20464;-77
2022/10/19 00:46:26;;;;;;;9.83;5.70;;;;;;;;;;5044325;28;20410;-77
2022/10/19 00:48:54;;;;;;;6.07;5.57;;;;;;;;;;5025190;28;20803;-77
2022/10/19 00:51:20;;;;;;;7.73;5.83;;;;;;;;;;5029126;28;20407;-78
2022/10/19 00:53:46;;;;;;;8.60;5.70;;;;;;;;;;5043596;28;20469;-77
2022/10/19 00:56:14;;;;;;;4.63;4.40;;;;;;;;;;5048393;28;20449;-78
2022/10/19 00:58:40;;;;;;;6.23;5.63;;;;;;;;;;5026310;28;20978;-77
2022/10/19 01:01:08;;;;;;;7.27;5.63;;;;;;;;;;5048836;28;20417;-77
2022/10/19 01:03:34;;;;;;;5.90;5.33;;;;;;;;;;5025082;28;20477;-78
2022/10/19 01:06:01;;;;;;;8.80;5.37;;;;;;;;;;5028832;28;20844;-77
2022/10/19 01:08:27;;;;;;;6.40;5.93;;;;;;;;;;5047929;28;20453;-78
2022/10/19 01:10:56;;;;;;;6.03;5.20;;;;;;;;;;5045322;28;20477;-78
2022/10/19 01:13:26;;;;;;;8.43;5.53;;;;;;;;;;5029196;28;20458;-78
2022/10/19 01:16:06;;;;;;;8.73;5.90;;;;;;;;;;5027999;28;20438;-78
2022/10/19 01:18:45;;;;;;;13.50;6.17;;;;;;;;;;5049471;28;20410;-78
2022/10/19 01:21:18;;;;;;;12.70;6.00;;;;;;;;;;5048503;28;20406;-78
2022/10/19 01:23:44;;;;;;;5.27;4.97;;;;;;;;;;5025904;28;20629;-78
2022/10/19 01:26:13;;;;;;;6.80;6.13;;;;;;;;;;5048143;28;20440;-77
2022/10/19 01:28:54;;;;;;;5.70;5.20;;;;;;;;;;5024695;28;20624;-76
2022/10/19 01:31:23;;;;;;;7.67;6.43;;;;;;;;;;5028199;28;20414;-77
2022/10/19 01:33:49;;;;;;;8.20;6.00;;;;;;;;;;5043402;28;20724;-77
2022/10/19 01:36:22;;;;;;;7.23;6.07;;;;;;;;;;5048042;28;20448;-79
2022/10/19 01:38:59;;;;;;;7.28;5.65;;;;;;;;;;5024335;28;20410;-78
2022/10/19 01:41:25;;;;;;;9.57;6.37;;;;;;;;;;5027985;28;20174;-77
2022/10/19 01:44:09;;;;;;;10.23;6.40;;;;;;;;;;5041971;28;20434;-78
2022/10/19 01:46:39;;;;;;;5.93;5.10;;;;;;;;;;5026291;28;20410;-77
2022/10/19 01:49:11;;;;;;;5.97;5.65;;;;;;;;;;5043523;28;20475;-77
2022/10/19 01:51:38;;;;;;;6.67;5.63;;;;;;;;;;5047673;28;20175;-77
2022/10/19 01:54:06;;;;;;;6.90;6.33;;;;;;;;;;5027521;28;20896;-76
2022/10/19 01:56:33;;;;;;;21.00;7.40;;;;;;;;;;5047188;28;20837;-77
2022/10/19 01:59:02;;;;;;;6.23;5.70;;;;;;;;;;5026798;28;20423;-75
2022/10/19 02:01:30;;;;;;;11.97;6.10;;;;;;;;;;5047334;28;20974;-76
2022/10/19 02:03:57;;;;;;;6.37;5.80;;;;;;;;;;5025785;28;20462;-78
2022/10/19 02:06:23;;;;;;;5.90;5.47;;;;;;;;;;5047451;28;20707;-77
2022/10/19 02:08:51;;;;;;;7.73;5.47;;;;;;;;;;5024316;28;20548;-77
2022/10/19 02:11:18;;;;;;;6.53;5.83;;;;;;;;;;5027443;28;20842;-77
2022/10/19 02:13:46;;;;;;;5.03;4.77;;;;;;;;;;5043900;28;20709;-77
2022/10/19 02:16:14;;;;;;;5.40;5.10;;;;;;;;;;5027203;28;20411;-77
2022/10/19 02:18:44;;;;;;;5.73;5.33;;;;;;;;;;5046429;28;20421;-76
2022/10/19 02:21:10;;;;;;;7.70;5.57;;;;;;;;;;5045708;28;20439;-77
2022/10/19 02:23:36;;;;;;;6.67;5.80;;;;;;;;;;5027617;28;20191;-77
2022/10/19 02:26:03;;;;;;;7.30;6.00;;;;;;;;;;5022827;28;21078;-78
2022/10/19 02:28:29;;;;;;;12.83;6.47;;;;;;;;;;5045810;28;20433;-78
2022/10/19 02:30:56;;;;;;;11.87;6.37;;;;;;;;;;5040815;28;20445;-77
2022/10/19 02:33:22;;;;;;;10.68;6.85;;;;;;;;;;5027288;28;20470;-78
2022/10/19 02:35:48;;;;;;;11.30;6.15;;;;;;;;;;5026204;28;20202;-78
2022/10/19 02:38:16;;;;;;;6.83;6.20;;;;;;;;;;5045971;28;20179;-78
2022/10/19 02:40:44;;;;;;;22.43;6.57;;;;;;;;;;5038233;28;21169;-76
2022/10/19 02:43:12;;;;;;;20.40;6.30;;;;;;;;;;5026661;28;20431;-77
2022/10/19 02:45:41;;;;;;;7.90;5.97;;;;;;;;;;5025512;28;20493;-77
2022/10/19 02:48:10;;;;;;;12.20;7.40;;;;;;;;;;5046229;28;20426;-77
2022/10/19 02:50:36;;;;;;;21.17;8.10;;;;;;;;;;5037153;28;20499;-76
2022/10/19 02:53:02;;;;;;;14.32;6.93;;;;;;;;;;5026925;28;20203;-76
2022/10/19 02:55:30;;;;;;;14.13;7.20;;;;;;;;;;5028596;28;20216;-78
2022/10/19 02:57:56;;;;;;;7.13;6.65;;;;;;;;;;5045818;28;20210;-76
2022/10/19 03:00:22;;;;;;;10.65;5.68;;;;;;;;;;5034069;28;20676;-76
2022/10/19 03:02:48;;;;;;;5.93;5.32;;;;;;;;;;5026742;28;20187;-77
2022/10/19 03:05:14;;;;;;;7.67;4.80;;;;;;;;;;5031694;28;20238;-77
2022/10/19 03:07:41;;;;;;;5.17;4.70;;;;;;;;;;5045241;28;20472;-76
2022/10/19 03:10:07;;;;;;;6.93;6.13;;;;;;;;;;5040863;28;21048;-78
2022/10/19 03:12:33;;;;;;;7.63;6.80;;;;;;;;;;5026288;28;20432;-78
2022/10/19 03:14:59;;;;;;;5.93;5.40;;;;;;;;;;5041163;28;20828;-77
2022/10/19 03:17:25;;;;;;;9.90;6.47;;;;;;;;;;5026339;28;20266;-78
2022/10/19 03:19:51;;;;;;;7.75;6.97;;;;;;;;;;5041058;28;20513;-77
2022/10/19 03:22:17;;;;;;;6.30;5.57;;;;;;;;;;5044468;28;20345;-77
2022/10/19 03:24:43;;;;;;;5.90;5.23;;;;;;;;;;5020826;28;20449;-78
2022/10/19 03:27:09;;;;;;;11.50;5.17;;;;;;;;;;5025707;28;20446;-78
2022/10/19 03:29:35;;;;;;;5.93;5.57;;;;;;;;;;5041055;28;20969;-78
2022/10/19 03:32:01;;;;;;;6.60;6.20;;;;;;;;;;5045553;28;20421;-77
2022/10/19 03:34:27;;;;;;;5.82;5.53;;;;;;;;;;5022460;28;20469;-77
2022/10/19 03:36:55;;;;;;;7.57;6.40;;;;;;;;;;5025579;28;20168;-78
2022/10/19 03:39:21;;;;;;;11.15;8.15;;;;;;;;;;5041326;28;20505;-77
2022/10/19 03:41:47;;;;;;;9.20;7.33;;;;;;;;;;5045224;28;20250;-78
2022/10/19 03:44:13;;;;;;;13.50;7.73;;;;;;;;;;5020741;28;21055;-79
2022/10/19 03:46:39;;;;;;;10.40;8.38;;;;;;;;;;5020711;28;20399;-77
2022/10/19 03:49:05;;;;;;;8.05;6.40;;;;;;;;;;5042940;28;20187;-77
2022/10/19 03:51:31;;;;;;;6.60;6.22;;;;;;;;;;5045220;28;20225;-76
2022/10/19 03:53:59;;;;;;;7.97;7.28;;;;;;;;;;5025502;28;20257;-76
2022/10/19 03:56:26;;;;;;;6.50;5.93;;;;;;;;;;5022163;28;20211;-76
2022/10/19 03:58:53;;;;;;;7.60;7.00;;;;;;;;;;5044491;28;20915;-76
2022/10/19 04:01:26;;;;;;;8.05;7.55;;;;;;;;;;5039523;28;20848;-76
2022/10/19 04:03:53;;;;;;;9.00;7.40;;;;;;;;;;5030897;28;20182;-76
2022/10/19 04:06:20;;;;;;;7.80;6.43;;;;;;;;;;5022594;28;20500;-76
2022/10/19 04:08:48;;;;;;;7.55;6.25;;;;;;;;;;5044031;28;20502;-76
2022/10/19 04:11:15;;;;;;;10.77;6.77;;;;;;;;;;5024362;28;20190;-77
2022/10/19 04:13:41;;;;;;;7.57;6.47;;;;;;;;;;5046788;28;20582;-77
2022/10/19 04:16:07;;;;;;;9.13;8.23;;;;;;;;;;5025953;28;20329;-77
2022/10/19 04:18:33;;;;;;;10.70;8.83;;;;;;;;;;5048231;28;20186;-77
2022/10/19 04:21:00;;;;;;;10.85;8.40;;;;;;;;;;5040068;28;20434;-77
2022/10/19 04:23:27;;;;;;;13.23;9.50;;;;;;;;;;5029188;28;20552;-77
2022/10/19 04:25:58;;;;;;;10.02;9.02;;;;;;;;;;5035282;28;20498;-78
2022/10/19 04:28:24;;;;;;;10.90;9.18;;;;;;;;;;5047340;28;20179;-78
2022/10/19 04:30:50;;;;;;;15.67;9.40;;;;;;;;;;5031407;28;20203;-78
2022/10/19 04:33:16;;;;;;;16.08;10.50;;;;;;;;;;5047813;28;20851;-78
2022/10/19 04:35:42;;;;;;;13.43;10.30;;;;;;;;;;5037425;28;20187;-78
2022/10/19 04:38:08;;;;;;;11.90;9.53;;;;;;;;;;5029112;28;20437;-77
2022/10/19 04:40:37;;;;;;;10.40;8.90;;;;;;;;;;5033984;28;20440;-77
2022/10/19 04:43:04;;;;;;;9.13;8.27;;;;;;;;;;5047769;28;20429;-77
2022/10/19 04:45:30;;;;;;;10.02;8.02;;;;;;;;;;5023007;28;20468;-78
2022/10/19 04:47:56;;;;;;;12.35;7.43;;;;;;;;;;5047690;28;20183;-77
2022/10/19 04:50:23;;;;;;;9.90;8.43;;;;;;;;;;5025397;28;20295;-77
2022/10/19 04:52:49;;;;;;;14.80;8.80;;;;;;;;;;5047618;28;20525;-77
2022/10/19 04:55:15;;;;;;;15.87;8.60;;;;;;;;;;5024647;28;20302;-78
2022/10/19 04:57:41;;;;;;;15.02;9.02;;;;;;;;;;5027801;28;20411;-78
2022/10/19 05:00:07;;;;;;;9.23;8.43;;;;;;;;;;5037694;28;20184;-77
2022/10/19 05:02:33;;;;;;;15.03;9.57;;;;;;;;;;5027846;28;20425;-78
2022/10/19 05:04:59;;;;;;;10.50;8.70;;;;;;;;;;5043470;28;21018;-78
2022/10/19 05:07:25;;;;;;;10.37;9.33;;;;;;;;;;5047777;28;20414;-77
2022/10/19 05:09:51;;;;;;;11.97;9.03;;;;;;;;;;5025011;28;20466;-78
2022/10/19 05:12:17;;;;;;;10.57;9.67;;;;;;;;;;5027773;28;20892;-77
2022/10/19 05:14:43;;;;;;;13.00;9.60;;;;;;;;;;5042872;28;20924;-77
2022/10/19 05:17:09;;;;;;;11.70;10.10;;;;;;;;;;5052017;28;20467;-78
2022/10/19 05:19:35;;;;;;;17.20;11.60;;;;;;;;;;5029749;28;20509;-77
2022/10/19 05:22:01;;;;;;;14.97;10.80;;;;;;;;;;5028232;28;20418;-76
2022/10/19 05:24:27;;;;;;;14.87;11.33;;;;;;;;;;5041723;28;20421;-78
2022/10/19 05:26:53;;;;;;;14.30;10.53;;;;;;;;;;5047430;28;20414;-79
2022/10/19 05:29:19;;;;;;;13.87;11.93;;;;;;;;;;5028152;28;20421;-78
2022/10/19 05:31:45;;;;;;;17.40;10.75;;;;;;;;;;5023799;28;20963;-78
2022/10/19 05:34:11;;;;;;;11.73;10.53;;;;;;;;;;5046647;28;20612;-79
2022/10/19 05:36:38;;;;;;;12.70;10.47;;;;;;;;;;5024932;28;20496;-78
2022/10/19 05:39:08;;;;;;;12.60;9.93;;;;;;;;;;5047134;28;20472;-78
2022/10/19 05:41:35;;;;;;;13.68;11.40;;;;;;;;;;5041012;28;20450;-77
2022/10/19 05:44:01;;;;;;;12.13;10.93;;;;;;;;;;5027278;28;20195;-79
2022/10/19 05:46:28;;;;;;;13.93;9.63;;;;;;;;;;5019941;28;20445;-78
2022/10/19 05:48:55;;;;;;;11.27;10.30;;;;;;;;;;5046701;28;20367;-78
2022/10/19 05:51:22;;;;;;;17.67;10.60;;;;;;;;;;5039068;28;20453;-77
2022/10/19 05:53:48;;;;;;;13.27;11.10;;;;;;;;;;5026859;28;20210;-76
2022/10/19 05:56:15;;;;;;;17.30;11.17;;;;;;;;;;5028165;28;20204;-76
2022/10/19 05:58:41;;;;;;;15.13;11.40;;;;;;;;;;5045719;28;20417;-77
2022/10/19 06:01:08;;;;;;;13.47;9.40;;;;;;;;;;5036941;28;21041;-77
2022/10/19 06:03:34;;;;;;;11.02;9.88;;;;;;;;;;5025834;28;20525;-78
2022/10/19 06:06:04;;;;;;;11.68;10.48;;;;;;;;;;5030036;28;20226;-78
2022/10/19 06:08:30;;;;;;;10.70;9.00;;;;;;;;;;5046179;28;20519;-77
2022/10/19 06:11:10;;;;;;;10.30;9.27;;;;;;;;;;4673577;28;9999800;-77
2022/10/19 06:13:36;;;;;;;12.35;10.40;;;;;;;;;;5034189;28;20249;-79
2022/10/19 06:16:03;;;;;;;13.93;10.32;;;;;;;;;;5029381;28;20333;-78
2022/10/19 06:18:29;;;;;;;9.57;8.68;;;;;;;;;;5041284;28;20475;-77
2022/10/19 06:20:55;;;;;;;9.90;8.90;;;;;;;;;;5028719;28;20210;-77
2022/10/19 06:23:21;;;;;;;12.38;9.68;;;;;;;;;;5038823;28;20503;-78
2022/10/19 06:25:47;;;;;;;9.63;8.73;;;;;;;;;;5032406;28;20321;-78
2022/10/19 06:28:13;;;;;;;12.60;9.20;;;;;;;;;;5036613;28;20854;-77
2022/10/19 06:30:39;;;;;;;11.85;10.75;;;;;;;;;;5030437;28;20445;-79
2022/10/19 06:33:05;;;;;;;10.75;9.63;;;;;;;;;;5042796;28;20210;-77
2022/10/19 06:35:32;;;;;;;10.10;9.20;;;;;;;;;;5027126;28;20196;-77
2022/10/19 06:37:58;;;;;;;8.50;7.20;;;;;;;;;;5039937;28;20464;-78
2022/10/19 06:40:25;;;;;;;12.13;10.00;;;;;;;;;;5030678;28;20732;-77
2022/10/19 06:42:51;;;;;;;9.32;8.55;;;;;;;;;;5037549;28;20440;-76
2022/10/19 06:45:17;;;;;;;15.83;9.17;;;;;;;;;;5027603;28;20209;-77
2022/10/19 06:47:46;;;;;;;10.45;9.02;;;;;;;;;;5034034;28;20475;-78
2022/10/19 06:50:12;;;;;;;11.48;9.40;;;;;;;;;;5030075;28;20199;-77
2022/10/19 06:52:39;;;;;;;15.13;9.75;;;;;;;;;;5033632;28;20190;-77
2022/10/19 06:55:05;;;;;;;10.70;8.25;;;;;;;;;;5029096;28;20226;-78
2022/10/19 06:57:32;;;;;;;12.23;9.10;;;;;;;;;;5033620;28;20210;-77
2022/10/19 06:59:58;;;;;;;12.15;9.70;;;;;;;;;;5029611;28;20249;-79
2022/10/19 07:02:24;;;;;;;15.13;9.30;;;;;;;;;;5034210;28;20676;-77
2022/10/19 07:04:50;;;;;;;10.30;9.27;;;;;;;;;;5036083;28;20437;-77
2022/10/19 07:07:16;;;;;;;9.40;8.50;;;;;;;;;;5033758;28;20422;-77
2022/10/19 07:09:42;;;;;;;9.95;8.95;;;;;;;;;;5033146;28;20473;-78
2022/10/19 07:12:09;;;;;;;10.43;9.33;;;;;;;;;;5026545;28;20196;-78
2022/10/19 07:14:38;;;;;;;10.47;9.47;;;;;;;;;;5035445;28;20760;-76
2022/10/19 07:17:05;;;;;;;9.80;8.82;;;;;;;;;;5038336;28;20540;-77
2022/10/19 07:19:31;;;;;;;11.18;10.18;;;;;;;;;;5036150;28;20195;-78
2022/10/19 07:21:57;;;;;;;15.87;9.93;;;;;;;;;;5039994;28;20410;-78
2022/10/19 07:24:23;;;;;;;13.05;10.30;;;;;;;;;;5037026;28;20428;-77
2022/10/19 07:26:49;;;;;;;10.63;9.47;;;;;;;;;;5025227;28;20195;-78
2022/10/19 07:29:15;;;;;;;10.73;9.63;;;;;;;;;;5042500;28;20430;-77
2022/10/19 07:31:41;;;;;;;11.30;10.10;;;;;;;;;;5037804;28;20454;-78
2022/10/19 07:34:11;;;;;;;15.67;9.60;;;;;;;;;;5025746;28;20266;-78
2022/10/19 07:36:38;;;;;;;11.93;9.70;;;;;;;;;;5039738;28;20436;-78
2022/10/19 07:39:05;;;;;;;13.37;10.20;;;;;;;;;;5044944;28;20946;-78
2022/10/19 07:41:32;;;;;;;10.93;9.87;;;;;;;;;;5035407;28;20829;-77
2022/10/19 07:43:58;;;;;;;11.67;9.50;;;;;;;;;;5023974;28;20468;-77
2022/10/19 07:46:27;;;;;;;9.80;9.00;;;;;;;;;;5023747;28;20530;-79
2022/10/19 07:48:53;;;;;;;10.33;9.37;;;;;;;;;;5044515;28;20424;-77
2022/10/19 07:51:20;;;;;;;8.60;7.73;;;;;;;;;;5034107;28;20438;-78
2022/10/19 07:53:47;;;;;;;11.77;9.70;;;;;;;;;;5024941;28;20976;-77
2022/10/19 07:56:14;;;;;;;9.17;8.40;;;;;;;;;;5040374;28;20561;-77
2022/10/19 07:58:41;;;;;;;9.20;8.52;;;;;;;;;;5024761;28;20422;-78
2022/10/19 08:01:14;;;;;;;10.17;9.17;;;;;;;;;;5040297;28;20195;-75
2022/10/19 08:03:41;;;;;;;10.20;9.20;;;;;;;;;;5022988;28;20972;-76
2022/10/19 08:06:08;;;;;;;10.13;9.13;;;;;;;;;;5040149;28;21088;-77
2022/10/19 08:08:34;;;;;;;9.37;8.57;;;;;;;;;;5025098;28;20520;-77
2022/10/19 08:11:11;;;;;;;9.77;8.80;;;;;;;;;;5039926;28;20520;-77
2022/10/19 08:13:38;;;;;;;10.07;8.80;;;;;;;;;;5044047;28;20463;-78
2022/10/19 08:16:19;;;;;;;8.87;8.20;;;;;;;;;;5041420;28;20436;-77
2022/10/19 08:18:46;;;;;;;10.10;9.20;;;;;;;;;;5024522;28;20415;-76
2022/10/19 08:21:12;;;;;;;7.83;7.30;;;;;;;;;;5039019;28;20641;-76
2022/10/19 08:23:38;;;;;;;9.33;8.43;;;;;;;;;;5026272;28;20487;-77
2022/10/19 08:26:04;;;;;;;8.03;7.30;;;;;;;;;;5040288;28;20543;-78
2022/10/19 08:28:30;;;;;;;6.30;5.87;;;;;;;;;;5024619;28;20480;-78
2022/10/19 08:30:57;;;;;;;8.13;7.00;;;;;;;;;;5039650;28;20489;-78
2022/10/19 08:33:24;;;;;;;6.03;5.60;;;;;;;;;;5044662;28;20450;-77
2022/10/19 08:35:50;;;;;;;6.20;5.80;;;;;;;;;;5021474;28;20454;-78
2022/10/19 08:38:16;;;;;;;5.60;5.00;;;;;;;;;;5039800;28;20433;-77
2022/10/19 08:40:48;;;;;;;7.18;6.57;;;;;;;;;;4560794;28;10002808;-76
2022/10/19 08:43:22;;;;;;;6.43;5.67;;;;;;;;;;5036243;28;20205;-76
2022/10/19 08:46:07;;;;;;;6.17;5.77;;;;;;;;;;5029712;28;20445;-76
2022/10/19 08:48:35;;;;;;;7.67;7.07;;;;;;;;;;5035667;28;20472;-76
2022/10/19 08:51:03;;;;;;;6.50;6.03;;;;;;;;;;5037995;28;20441;-77
2022/10/19 08:53:32;;;;;;;5.70;5.30;;;;;;;;;;4682358;28;10000049;-76
2022/10/19 08:55:58;;;;;;;5.23;5.00;;;;;;;;;;5026422;28;20223;-77
2022/10/19 08:58:30;;;;;;;5.50;5.10;;;;;;;;;;5040135;28;20575;-77
2022/10/19 09:01:05;;;;;;;5.80;5.60;;;;;;;;;;5036625;28;20790;-77
2022/10/19 09:03:37;;;;;;;5.97;5.60;;;;;;;;;;5040072;28;20433;-77
2022/10/19 09:06:22;;;;;;;7.60;6.33;;;;;;;;;;5036502;28;20508;-77
2022/10/19 09:08:52;;;;;;;6.63;6.23;;;;;;;;;;5040437;28;20456;-77
2022/10/19 09:11:22;;;;;;;9.80;9.00;;;;;;;;;;4690902;28;10000408;-75
2022/10/19 09:13:49;;;;;;;6.03;5.50;;;;;;;;;;5035348;28;20561;-77
2022/10/19 09:16:17;;;;;;;7.53;6.90;;;;;;;;;;5043509;28;20456;-78
2022/10/19 09:18:43;;;;;;;5.37;5.10;;;;;;;;;;5047893;28;20418;-77
2022/10/19 09:21:12;;;;;;;7.03;6.43;;;;;;;;;;5044400;28;20422;-77
2022/10/19 09:23:38;;;;;;;5.20;4.90;;;;;;;;;;5027716;28;20880;-77
2022/10/19 09:26:10;;;;;;;4.07;3.97;;;;;;;;;;5036424;28;20534;-77
2022/10/19 09:28:44;;;;;;;4.70;4.60;;;;;;;;;;5027347;28;20399;-76
2022/10/19 09:31:14;;;;;;;5.43;4.90;;;;;;;;;;5028849;28;20528;-77
2022/10/19 09:33:40;;;;;;;5.80;4.50;;;;;;;;;;5047047;28;20518;-76
2022/10/19 09:36:07;;;;;;;4.30;4.03;;;;;;;;;;5024145;28;20438;-78
2022/10/19 09:38:33;;;;;;;4.70;4.40;;;;;;;;;;5027045;28;20407;-78
2022/10/19 09:41:18;;;;;;;4.80;3.70;;;;;;;;;;5042784;28;20445;-77
2022/10/19 09:43:49;;;;;;;3.53;3.27;;;;;;;;;;5046800;28;20418;-77
2022/10/19 09:46:20;;;;;;;10.23;4.50;;;;;;;;;;5021208;28;20509;-76
2022/10/19 09:48:52;;;;;;;3.60;3.20;;;;;;;;;;5047056;28;20479;-77
2022/10/19 09:51:19;;;;;;;2.93;2.67;;;;;;;;;;5024324;28;20434;-78
2022/10/19 09:53:46;;;;;;;3.00;2.80;;;;;;;;;;5045612;28;20470;-76
2022/10/19 09:56:23;;;;;;;3.00;2.70;;;;;;;;;;5023080;28;20482;-77
2022/10/19 09:58:50;;;;;;;4.10;2.67;;;;;;;;;;5034522;28;20477;-77
2022/10/19 10:01:30;;;;;;;2.63;2.40;;;;;;;;;;5022728;28;20526;-78
2022/10/19 10:04:04;;;;;;;2.93;2.73;;;;;;;;;;5026749;28;20416;-79
2022/10/19 10:06:30;;;;;;;6.03;5.03;;;;;;;;;;5033359;28;20515;-79
2022/10/19 10:08:57;;;;;;;3.20;2.00;;;;;;;;;;5026305;28;20608;-79
2022/10/19 10:11:23;;;;;;;6.47;2.80;;;;;;;;;;5042147;28;20445;-79
2022/10/19 10:13:51;;;;;;;5.90;4.80;;;;;;;;;;4695833;28;10000419;-78
2022/10/19 10:16:18;;;;;;;3.83;3.20;;;;;;;;;;5036351;28;20245;-80
2022/10/19 10:18:54;;;;;;;2.87;2.67;;;;;;;;;;5034819;28;20425;-80
2022/10/19 10:21:21;;;;;;;4.10;2.90;;;;;;;;;;5029062;28;20442;-79
2022/10/19 10:24:15;;;;;;;3.07;2.87;;;;;;;;;;5041730;28;20424;-79
2022/10/19 10:26:43;;;;;;;6.63;2.70;;;;;;;;;;5026699;28;20504;-79
2022/10/19 10:29:18;;;;;;;3.37;3.07;;;;;;;;;;5035566;28;20519;-79
2022/10/19 10:31:45;;;;;;;4.07;2.30;;;;;;;;;;5025751;28;20450;-77
2022/10/19 10:34:16;;;;;;;4.20;3.63;;;;;;;;;;5032147;28;20472;-77
2022/10/19 10:36:44;;;;;;;4.63;2.40;;;;;;;;;;5041804;28;20515;-74
2022/10/19 10:39:15;;;;;;;2.10;2.00;;;;;;;;;;5029876;28;20999;-74
2022/10/19 10:41:43;;;;;;;7.47;2.30;;;;;;;;;;5041736;28;20548;-75
2022/10/19 10:44:29;;;;;;;2.20;2.10;;;;;;;;;;5022301;28;20430;-75
2022/10/19 10:46:56;;;;;;;5.97;3.70;;;;;;;;;;5020652;28;20447;-75
2022/10/19 10:49:25;;;;;;;6.17;2.50;;;;;;;;;;5045447;28;20509;-74
2022/10/19 10:51:53;;;;;;;2.50;2.30;;;;;;;;;;5039496;28;20444;-76
2022/10/19 10:54:21;;;;;;;2.20;2.10;;;;;;;;;;5045845;28;20556;-76
2022/10/19 10:56:59;;;;;;;4.60;1.77;;;;;;;;;;5020444;28;20558;-76
2022/10/19 10:59:31;;;;;;;1.73;1.70;;;;;;;;;;5026023;28;20504;-78
2022/10/19 11:01:57;;;;;;;2.63;2.40;;;;;;;;;;5041710;28;20950;-75
2022/10/19 11:04:25;;;;;;;2.23;2.20;;;;;;;;;;5024644;28;20818;-76
2022/10/19 11:06:54;;;;;;;3.03;2.33;;;;;;;;;;5041183;28;20461;-75
2022/10/19 11:09:34;;;;;;;2.60;2.40;;;;;;;;;;5025535;28;20497;-75
2022/10/19 11:12:02;;;;;;;2.60;2.40;;;;;;;;;;5041843;28;20425;-75
2022/10/19 11:14:38;;;;;;;4.10;3.10;;;;;;;;;;4681692;28;9999726;-76
2022/10/19 11:17:06;;;;;;;1.40;1.40;;;;;;;;;;5022874;28;20501;-75
2022/10/19 11:19:37;;;;;;;2.37;2.03;;;;;;;;;;5034407;28;20441;-74
2022/10/19 11:22:10;;;;;;;2.90;2.73;;;;;;;;;;5022069;28;20800;-75
2022/10/19 11:24:45;;;;;;;2.50;2.40;;;;;;;;;;5034342;28;20596;-75
2022/10/19 11:27:14;;;;;;;8.87;8.37;;;;;;;;;;5029257;28;20477;-75
2022/10/19 11:29:50;;;;;;;2.53;2.43;;;;;;;;;;5045058;28;20438;-75
2022/10/19 11:32:25;;;;;;;6.07;1.90;;;;;;;;;;5023229;28;20538;-76
2022/10/19 11:35:00;;;;;;;2.63;2.50;;;;;;;;;;5043133;28;20818;-77
2022/10/19 11:37:26;;;;;;;2.60;2.50;;;;;;;;;;5030978;28;20536;-76
2022/10/19 11:40:04;;;;;;;2.27;2.17;;;;;;;;;;5025333;28;20506;-78
2022/10/19 11:42:41;;;;;;;3.40;2.10;;;;;;;;;;5036011;28;21046;-77
2022/10/19 11:45:26;;;;;;;3.03;2.13;;;;;;;;;;5022028;28;20426;-75
2022/10/19 11:47:59;;;;;;;3.40;2.03;;;;;;;;;;5041170;28;20445;-76
2022/10/19 11:50:25;;;;;;;3.40;2.90;;;;;;;;;;5024446;28;20506;-77
2022/10/19 11:52:55;;;;;;;5.40;2.77;;;;;;;;;;5022739;28;20529;-78
2022/10/19 11:55:21;;;;;;;2.73;2.50;;;;;;;;;;5036633;28;20964;-77
2022/10/19 11:57:51;;;;;;;2.70;2.50;;;;;;;;;;5040366;28;20491;-78
2022/10/19 12:00:20;;;;;;;1.90;1.80;;;;;;;;;;5024464;28;20427;-77
2022/10/19 12:03:16;;;;;;;3.10;2.40;;;;;;;;;;5024121;28;20814;-76
2022/10/19 12:05:48;;;;;;;3.23;3.03;;;;;;;;;;5015681;28;20504;-77
2022/10/19 12:08:40;;;;;;;4.63;2.63;;;;;;;;;;5045441;28;20421;-80
2022/10/19 12:11:22;;;;;;;2.57;2.47;;;;;;;;;;5021878;28;20927;-78
2022/10/19 12:13:56;;;;;;;3.20;3.00;;;;;;;;;;5023823;28;20462;-77
2022/10/19 12:16:27;;;;;;;2.77;2.27;;;;;;;;;;5037108;28;20516;-77
2022/10/19 12:18:55;;;;;;;2.83;2.70;;;;;;;;;;5026208;28;20398;-77
2022/10/19 12:21:28;;;;;;;2.80;2.70;;;;;;;;;;5045540;28;20483;-77
2022/10/19 12:23:55;;;;;;;2.70;1.93;;;;;;;;;;5048608;28;20486;-76
2022/10/19 12:26:21;;;;;;;4.53;2.70;;;;;;;;;;5030632;28;20510;-77
2022/10/19 12:28:54;;;;;;;2.33;2.13;;;;;;;;;;5061731;28;20409;-78
2022/10/19 12:31:21;;;;;;;2.53;2.33;;;;;;;;;;5024045;28;20802;-77
2022/10/19 12:33:47;;;;;;;4.80;2.80;;;;;;;;;;5027444;28;20518;-78
2022/10/19 12:36:22;;;;;;;6.03;2.70;;;;;;;;;;5041542;28;20453;-77
2022/10/19 12:38:51;;;;;;;2.40;2.40;;;;;;;;;;5044817;28;20424;-79
2022/10/19 12:41:40;;;;;;;1.87;1.77;;;;;;;;;;4680061;28;10000143;-79
2022/10/19 12:44:11;;;;;;;2.33;2.13;;;;;;;;;;5034420;28;20191;-77
2022/10/19 12:46:43;;;;;;;1.90;1.80;;;;;;;;;;5037528;28;20532;-79
2022/10/19 12:49:28;;;;;;;1.43;1.43;;;;;;;;;;5038915;28;20422;-80
2022/10/19 12:51:54;;;;;;;2.23;2.10;;;;;;;;;;5035107;28;20468;-77
2022/10/19 12:54:23;;;;;;;2.57;2.37;;;;;;;;;;5033413;28;20495;-79
2022/10/19 12:56:50;;;;;;;2.40;2.20;;;;;;;;;;5032030;28;20430;-78
2022/10/19 12:59:27;;;;;;;2.93;2.37;;;;;;;;;;5044578;28;20409;-79
2022/10/19 13:01:55;;;;;;;2.30;2.13;;;;;;;;;;5033972;28;20484;-78
2022/10/19 13:04:30;;;;;;;5.10;2.53;;;;;;;;;;5037500;28;20421;-79
2022/10/19 13:06:56;;;;;;;3.10;2.37;;;;;;;;;;5027385;28;20802;-79
2022/10/19 13:09:24;;;;;;;4.70;2.13;;;;;;;;;;5034881;28;20430;-78
2022/10/19 13:12:09;;;;;;;2.10;1.83;;;;;;;;;;5029318;28;20449;-79
2022/10/19 13:14:45;;;;;;;3.00;2.70;;;;;;;;;;5037791;28;20534;-78
2022/10/19 13:17:31;;;;;;;2.53;2.27;;;;;;;;;;5029071;28;20457;-78
2022/10/19 13:20:17;;;;;;;3.93;2.10;;;;;;;;;;5036151;28;20560;-77
2022/10/19 13:22:50;;;;;;;2.43;2.23;;;;;;;;;;4994247;28;20967;-79
2022/10/19 13:25:17;;;;;;;5.80;2.60;;;;;;;;;;5029843;28;20832;-77
2022/10/19 13:27:44;;;;;;;2.10;2.00;;;;;;;;;;5028035;28;20446;-77
2022/10/19 13:30:29;;;;;;;2.80;2.20;;;;;;;;;;5034219;28;20455;-75
2022/10/19 13:32:55;;;;;;;2.50;2.30;;;;;;;;;;5031178;28;20441;-77
2022/10/19 13:35:22;;;;;;;2.67;2.30;;;;;;;;;;5036146;28;20636;-79
2022/10/19 13:38:07;;;;;;;2.67;1.90;;;;;;;;;;5032530;28;20449;-80
2022/10/19 13:40:34;;;;;;;2.60;2.40;;;;;;;;;;5035277;28;20444;-78
2022/10/19 13:43:00;;;;;;;2.17;2.07;;;;;;;;;;5039093;28;20478;-77
2022/10/19 13:45:26;;;;;;;2.73;2.50;;;;;;;;;;5038938;28;20430;-78
2022/10/19 13:47:57;;;;;;;3.90;1.80;;;;;;;;;;5021324;28;20474;-79
2022/10/19 13:50:27;;;;;;;4.33;2.13;;;;;;;;;;5034270;28;20512;-78
2022/10/19 13:52:56;;;;;;;1.60;1.60;;;;;;;;;;5036339;28;20483;-78
2022/10/19 13:55:22;;;;;;;2.87;2.03;;;;;;;;;;5030022;28;20478;-77
2022/10/19 13:57:57;;;;;;;3.27;1.70;;;;;;;;;;5026098;28;20493;-78
2022/10/19 14:00:24;;;;;;;8.80;3.00;;;;;;;;;;4693874;28;10000039;-78
2022/10/19 14:02:55;;;;;;;3.70;2.47;;;;;;;;;;5022579;28;20200;-78
2022/10/19 14:05:25;;;;;;;3.70;2.10;;;;;;;;;;5043815;28;20437;-78
2022/10/19 14:07:50;;;;;;;2.73;2.20;;;;;;;;;;5035285;28;20457;-79
2022/10/19 14:10:18;;;;;;;2.30;2.10;;;;;;;;;;5026759;28;20649;-78
2022/10/19 14:12:45;;;;;;;3.40;2.03;;;;;;;;;;5031647;28;20438;-79
2022/10/19 14:15:13;;;;;;;2.30;2.10;;;;;;;;;;5046400;28;20461;-78
2022/10/19 14:17:42;;;;;;;2.40;2.30;;;;;;;;;;5022733;28;20434;-80
2022/10/19 14:20:27;;;;;;;3.43;2.30;;;;;;;;;;5045522;28;20495;-76
2022/10/19 14:22:53;;;;;;;5.50;2.50;;;;;;;;;;5041496;28;20505;-79
2022/10/19 14:25:20;;;;;;;2.70;2.60;;;;;;;;;;5033784;28;20473;-78
2022/10/19 14:27:47;;;;;;;3.30;2.00;;;;;;;;;;5050037;28;20442;-78
2022/10/19 14:30:33;;;;;;;4.23;2.47;;;;;;;;;;5027172;28;20489;-79
2022/10/19 14:33:00;;;;;;;3.07;2.60;;;;;;;;;;5037172;28;20437;-79
2022/10/19 14:35:31;;;;;;;2.33;1.83;;;;;;;;;;5025983;28;20540;-78
2022/10/19 14:37:57;;;;;;;3.03;2.60;;;;;;;;;;5027648;28;20462;-79
2022/10/19 14:40:26;;;;;;;6.60;2.60;;;;;;;;;;5045372;28;20464;-79
2022/10/19 14:42:52;;;;;;;2.27;2.07;;;;;;;;;;5022480;28;20443;-78
2022/10/19 14:45:20;;;;;;;8.67;2.70;;;;;;;;;;5043344;28;20520;-80
2022/10/19 14:47:58;;;;;;;2.43;2.30;;;;;;;;;;5033756;28;20441;-78